createdAt,value
2022-11-20T00:00:17.724Z,101325.69
2022-11-20T00:02:44.248Z,101312.66
2022-11-20T00:05:10.775Z,101307.25
2022-11-20T00:07:37.370Z,101315.56
2022-11-20T00:10:04.134Z,101321.69
2022-11-20T00:12:30.604Z,101315.06
2022-11-20T00:14:57.078Z,101310.66
2022-11-20T00:17:23.839Z,101313.38
2022-11-20T00:19:50.339Z,101297.59
2022-11-20T00:22:16.852Z,101300.63
2022-11-20T00:24:43.432Z,101300.63
2022-11-20T00:27:09.947Z,101297.88
2022-11-20T00:29:36.489Z,101307.50
2022-11-20T00:32:02.981Z,101316.69
2022-11-20T00:34:29.488Z,101318.16
2022-11-20T00:36:56.005Z,101317.53
2022-11-20T00:39:22.734Z,101309.31
2022-11-20T00:41:49.477Z,101311.50
2022-11-20T00:44:15.941Z,101309.53
2022-11-20T00:46:42.452Z,101309.00
2022-11-20T00:49:08.995Z,101304.28
2022-11-20T00:51:35.506Z,101299.09
2022-11-20T00:54:02.975Z,101309.31
2022-11-20T00:56:29.814Z,101304.25
2022-11-20T00:58:56.602Z,101321.72
2022-11-20T01:01:26.217Z,101304.25
2022-11-20T01:03:54.770Z,101308.84
2022-11-20T01:06:23.758Z,101310.00
2022-11-20T01:08:54.053Z,101314.28
2022-11-20T01:11:24.379Z,101313.28
2022-11-20T01:13:52.188Z,101315.97
2022-11-20T01:16:21.323Z,101320.03
2022-11-20T01:18:50.640Z,101313.78
2022-11-20T01:21:25.756Z,101306.91
2022-11-20T01:23:53.002Z,101301.66
2022-11-20T01:26:23.278Z,101308.75
2022-11-20T01:28:50.139Z,101306.00
2022-11-20T01:31:26.039Z,101306.47
2022-11-20T01:33:55.098Z,101300.50
2022-11-20T01:36:23.762Z,101305.63
2022-11-20T01:38:54.637Z,101302.81
2022-11-20T01:41:40.550Z,101292.31
2022-11-20T01:44:07.519Z,101295.13
2022-11-20T01:46:37.651Z,101304.13
2022-11-20T01:49:11.842Z,101303.97
2022-11-20T01:52:02.566Z,101299.69
2022-11-20T01:54:36.729Z,101300.91
2022-11-20T01:57:08.081Z,101299.88
2022-11-20T01:59:34.933Z,101300.06
2022-11-20T02:02:01.526Z,101308.13
2022-11-20T02:04:28.059Z,101302.06
2022-11-20T02:07:00.988Z,101308.41
2022-11-20T02:09:28.963Z,101297.19
2022-11-20T02:11:56.107Z,101304.69
2022-11-20T02:14:24.045Z,101295.66
2022-11-20T02:16:51.355Z,101290.97
2022-11-20T02:19:25.968Z,101290.50
2022-11-20T02:22:05.409Z,101291.59
2022-11-20T02:24:32.307Z,101288.91
2022-11-20T02:27:14.200Z,101283.56
2022-11-20T02:29:53.876Z,101283.09
2022-11-20T02:32:20.926Z,101285.03
2022-11-20T02:34:47.623Z,101286.03
2022-11-20T02:37:15.300Z,101291.41
2022-11-20T02:39:42.938Z,101289.53
2022-11-20T02:42:09.397Z,101288.53
2022-11-20T02:44:36.038Z,101286.88
2022-11-20T02:47:02.566Z,101279.91
2022-11-20T02:49:29.065Z,101279.63
2022-11-20T02:51:55.530Z,101284.16
2022-11-20T02:54:21.988Z,101278.63
2022-11-20T02:56:48.465Z,101275.72
2022-11-20T02:59:14.962Z,101275.72
2022-11-20T03:01:41.517Z,101277.63
2022-11-20T03:04:08.316Z,101283.41
2022-11-20T03:06:34.831Z,101278.72
2022-11-20T03:09:01.367Z,101274.34
2022-11-20T03:11:27.977Z,101268.53
2022-11-20T03:13:54.474Z,101271.28
2022-11-20T03:16:23.651Z,101272.88
2022-11-20T03:18:50.469Z,101272.66
2022-11-20T03:21:17.440Z,101262.59
2022-11-20T03:23:44.078Z,101273.84
2022-11-20T03:26:18.059Z,101260.09
2022-11-20T03:28:49.714Z,101253.75
2022-11-20T03:31:17.990Z,101258.44
2022-11-20T03:33:44.746Z,101258.28
2022-11-20T03:36:13.802Z,101263.56
2022-11-20T03:38:41.027Z,101259.47
2022-11-20T03:41:21.620Z,101262.47
2022-11-20T03:44:00.679Z,101259.91
2022-11-20T03:46:29.031Z,101245.31
2022-11-20T03:48:56.263Z,101247.47
2022-11-20T03:51:28.264Z,101249.84
2022-11-20T03:53:55.881Z,101249.69
2022-11-20T03:56:27.964Z,101247.47
2022-11-20T03:58:54.522Z,101238.38
2022-11-20T04:01:26.283Z,101234.06
2022-11-20T04:03:54.502Z,101219.44
2022-11-20T04:06:29.479Z,101231.97
2022-11-20T04:08:57.743Z,101231.00
2022-11-20T04:11:27.008Z,101229.97
2022-11-20T04:13:58.371Z,101221.72
2022-11-20T04:16:26.375Z,101225.78
2022-11-20T04:18:54.887Z,101227.94
2022-11-20T04:21:22.188Z,101222.19
2022-11-20T04:23:49.253Z,101220.69
2022-11-20T04:26:15.719Z,101215.97
2022-11-20T04:28:42.206Z,101223.72
2022-11-20T04:31:14.716Z,101225.13
2022-11-20T04:33:41.572Z,101216.94
2022-11-20T04:36:16.964Z,101209.75
2022-11-20T04:38:44.217Z,101220.47
2022-11-20T04:41:17.572Z,101212.38
2022-11-20T04:43:51.012Z,101213.34
2022-11-20T04:46:18.919Z,101213.50
2022-11-20T04:48:45.621Z,101220.56
2022-11-20T04:51:12.489Z,101219.72
2022-11-20T04:53:39.075Z,101209.19
2022-11-20T04:56:08.423Z,101213.69
2022-11-20T04:58:35.352Z,101212.66
2022-11-20T05:01:07.001Z,101211.66
2022-11-20T05:03:36.331Z,101205.47
2022-11-20T05:06:06.787Z,101200.09
2022-11-20T05:08:34.109Z,101199.56
2022-11-20T05:11:05.577Z,101190.34
2022-11-20T05:13:32.209Z,101195.38
2022-11-20T05:16:04.112Z,101188.06
2022-11-20T05:18:30.626Z,101187.03
2022-11-20T05:20:58.203Z,101182.66
2022-11-20T05:23:25.960Z,101180.34
2022-11-20T05:25:58.870Z,101176.78
2022-11-20T05:28:26.907Z,101176.66
2022-11-20T05:30:53.486Z,101182.31
2022-11-20T05:33:20.071Z,101173.88
2022-11-20T05:35:46.775Z,101176.59
2022-11-20T05:38:13.362Z,101188.13
2022-11-20T05:40:39.824Z,101192.19
2022-11-20T05:43:06.378Z,101180.75
2022-11-20T05:45:32.862Z,101200.22
2022-11-20T05:48:01.111Z,101194.00
2022-11-20T05:50:30.353Z,101200.22
2022-11-20T05:53:00.285Z,101200.22
2022-11-20T05:55:27.567Z,101208.41
2022-11-20T05:57:55.804Z,101210.22
2022-11-20T06:00:22.779Z,101208.72
2022-11-20T06:02:49.398Z,101208.84
2022-11-20T06:05:15.940Z,101202.69
2022-11-20T06:07:42.556Z,101213.53
2022-11-20T06:10:09.454Z,101219.56
2022-11-20T06:12:35.985Z,101213.09
2022-11-20T06:15:02.519Z,101219.97
2022-11-20T06:17:29.040Z,101214.16
2022-11-20T06:19:55.558Z,101214.84
2022-11-20T06:22:22.025Z,101212.78
2022-11-20T06:24:48.687Z,101210.47
2022-11-20T06:27:15.283Z,101214.53
2022-11-20T06:29:41.746Z,101201.97
2022-11-20T06:32:08.362Z,101199.44
2022-11-20T06:34:34.817Z,101204.47
2022-11-20T06:37:01.334Z,101202.84
2022-11-20T06:39:27.813Z,101215.34
2022-11-20T06:41:58.511Z,101207.63
2022-11-20T06:44:25.536Z,101206.00
2022-11-20T06:46:52.000Z,101204.16
2022-11-20T06:49:18.567Z,101191.84
2022-11-20T06:51:45.074Z,101191.19
2022-11-20T06:54:11.555Z,101185.91
2022-11-20T06:56:38.020Z,101184.78
2022-11-20T06:59:06.822Z,101191.34
2022-11-20T07:01:33.462Z,101176.09
2022-11-20T07:04:00.035Z,101178.97
2022-11-20T07:06:26.510Z,101179.53
2022-11-20T07:08:53.581Z,101170.34
2022-11-20T07:11:20.070Z,101185.03
2022-11-20T07:13:46.706Z,101185.56
2022-11-20T07:16:13.225Z,101182.88
2022-11-20T07:18:39.728Z,101171.38
2022-11-20T07:21:11.319Z,101175.19
2022-11-20T07:23:38.104Z,101189.22
2022-11-20T07:26:09.726Z,101188.25
2022-11-20T07:28:36.644Z,101185.41
2022-11-20T07:31:04.053Z,101169.94
2022-11-20T07:33:30.613Z,101171.25
2022-11-20T07:35:59.566Z,101176.06
2022-11-20T07:38:26.057Z,101169.38
2022-11-20T07:40:56.970Z,101164.66
2022-11-20T07:43:23.509Z,101167.03
2022-11-20T07:45:50.063Z,101165.19
2022-11-20T07:48:16.784Z,101164.00
2022-11-20T07:50:43.313Z,101160.63
2022-11-20T07:53:09.810Z,101164.84
2022-11-20T07:55:36.261Z,101172.63
2022-11-20T07:58:02.853Z,101176.63
2022-11-20T08:00:29.493Z,101184.84
2022-11-20T08:02:56.120Z,101177.97
2022-11-20T08:05:22.864Z,101180.50
2022-11-20T08:07:49.556Z,101183.91
2022-11-20T08:10:17.184Z,101173.81
2022-11-20T08:13:07.224Z,101178.88
2022-11-20T08:15:34.456Z,101166.44
2022-11-20T08:21:02.272Z,101168.16
2022-11-20T08:23:28.728Z,101160.31
2022-11-20T08:25:55.250Z,101157.06
2022-11-20T08:28:22.495Z,101159.28
2022-11-20T08:30:50.941Z,101166.84
2022-11-20T08:33:18.348Z,101153.44
2022-11-20T08:35:44.979Z,101156.47
2022-11-20T08:38:11.525Z,101158.44
2022-11-20T08:40:38.021Z,101163.50
2022-11-20T08:43:05.218Z,101162.34
2022-11-20T08:45:34.524Z,101161.19
2022-11-20T08:48:03.069Z,101158.47
2022-11-20T08:50:30.180Z,101162.53
2022-11-20T08:52:56.699Z,101152.47
2022-11-20T08:55:23.225Z,101167.25
2022-11-20T08:57:51.236Z,101161.56
2022-11-20T09:00:18.179Z,101160.53
2022-11-20T09:02:44.680Z,101152.50
2022-11-20T09:05:11.159Z,101154.84
2022-11-20T09:07:37.727Z,101144.97
2022-11-20T09:10:25.519Z,101142.94
2022-11-20T09:12:52.631Z,101147.13
2022-11-20T09:15:19.652Z,101151.84
2022-11-20T09:18:03.314Z,101155.88
2022-11-20T09:20:30.871Z,101133.03
2022-11-20T09:22:57.996Z,101144.81
2022-11-20T09:25:24.873Z,101139.09
2022-11-20T09:27:58.911Z,101132.56
2022-11-20T09:30:26.278Z,101123.34
2022-11-20T09:32:52.731Z,101120.31
2022-11-20T09:35:19.517Z,101126.69
2022-11-20T09:37:46.399Z,101127.38
2022-11-20T09:40:24.922Z,101110.06
2022-11-20T09:43:13.014Z,101120.66
2022-11-20T09:46:08.759Z,101110.56
2022-11-20T09:48:50.765Z,101110.56
2022-11-20T09:51:35.832Z,101110.56
2022-11-20T09:54:16.246Z,101103.69
2022-11-20T09:56:48.147Z,101104.84
2022-11-20T09:59:37.526Z,101106.38
2022-11-20T10:02:15.911Z,101099.13
2022-11-20T10:04:50.470Z,101101.16
2022-11-20T10:07:38.061Z,101094.75
2022-11-20T10:10:05.547Z,101079.63
2022-11-20T10:12:50.037Z,101079.94
2022-11-20T10:15:34.982Z,101077.94
2022-11-20T10:18:16.585Z,101077.59
2022-11-20T10:20:55.077Z,101066.47
2022-11-20T10:23:46.074Z,101062.28
2022-11-20T10:26:12.458Z,101047.34
2022-11-20T10:28:55.433Z,101040.25
2022-11-20T10:31:39.078Z,101038.19
2022-11-20T10:34:29.620Z,101021.72
2022-11-20T10:36:57.807Z,101014.16
2022-11-20T10:39:33.298Z,101004.06
2022-11-20T10:42:01.526Z,100994.75
2022-11-20T10:44:51.121Z,100990.03
2022-11-20T10:47:20.178Z,100982.63
2022-11-20T10:49:52.159Z,100976.53
2022-11-20T10:52:26.510Z,100988.31
2022-11-20T10:55:09.108Z,100977.81
2022-11-20T10:57:56.990Z,100968.22
2022-11-20T11:00:23.485Z,100972.59
2022-11-20T11:02:52.073Z,100963.31
2022-11-20T11:05:28.607Z,100962.63
2022-11-20T11:07:57.224Z,100955.19
2022-11-20T11:10:55.780Z,100957.25
2022-11-20T11:13:28.036Z,100955.75
2022-11-20T11:17:24.867Z,100956.25
2022-11-20T11:20:21.371Z,100945.84
2022-11-20T11:22:49.647Z,100952.34
2022-11-20T11:25:37.902Z,100948.91
2022-11-20T11:28:23.390Z,100942.84
2022-11-20T11:30:50.223Z,100939.22
2022-11-20T11:33:22.375Z,100950.97
2022-11-20T11:35:53.389Z,100949.06
2022-11-20T11:38:28.129Z,100937.53
2022-11-20T11:40:56.044Z,100949.13
2022-11-20T11:43:54.943Z,100938.59
2022-11-20T11:46:21.347Z,100925.97
2022-11-20T11:49:01.371Z,100928.38
2022-11-20T11:51:51.939Z,100924.00
2022-11-20T11:54:27.609Z,100920.03
2022-11-20T11:56:54.889Z,100910.56
2022-11-20T11:59:40.278Z,100903.13
2022-11-20T12:02:31.118Z,100893.94
2022-11-20T12:05:18.547Z,100888.00
2022-11-20T12:07:58.737Z,100873.78
2022-11-20T12:10:47.762Z,100865.34
2022-11-20T12:13:31.727Z,100852.16
2022-11-20T12:15:59.344Z,100855.69
2022-11-20T12:18:25.878Z,100841.56
2022-11-20T12:21:22.059Z,100824.69
2022-11-20T12:23:57.581Z,100818.91
2022-11-20T12:26:46.528Z,100815.56
2022-11-20T12:29:22.003Z,100805.28
2022-11-20T12:32:16.760Z,100813.69
2022-11-20T12:34:53.907Z,100809.91
2022-11-20T12:37:37.843Z,100808.88
2022-11-20T12:40:28.353Z,100807.09
2022-11-20T12:43:26.072Z,100794.97
2022-11-20T12:46:17.066Z,100791.31
2022-11-20T12:48:53.391Z,100788.31
2022-11-20T12:51:34.755Z,100785.97
2022-11-20T12:54:27.534Z,100778.56
2022-11-20T12:57:07.483Z,100769.19
2022-11-20T13:00:01.867Z,100754.75
2022-11-20T13:02:38.392Z,100745.56
2022-11-20T13:05:32.262Z,100736.53
2022-11-20T13:07:59.422Z,100727.47
2022-11-20T13:10:39.791Z,100737.75
2022-11-20T13:13:23.514Z,100731.00
2022-11-20T13:16:02.366Z,100723.38
2022-11-20T13:18:38.737Z,100709.50
2022-11-20T13:21:18.383Z,100703.09
2022-11-20T13:23:44.990Z,100690.78
2022-11-20T13:26:19.857Z,100691.03
2022-11-20T13:28:48.487Z,100686.97
2022-11-20T13:31:45.557Z,100685.09
2022-11-20T13:34:25.121Z,100666.63
2022-11-20T13:36:53.863Z,100678.13
2022-11-20T13:39:31.585Z,100674.59
2022-11-20T13:42:00.426Z,100674.31
2022-11-20T13:44:34.174Z,100663.81
2022-11-20T13:47:00.847Z,100663.34
2022-11-20T13:49:32.711Z,100663.19
2022-11-20T13:52:43.397Z,100655.38
2022-11-20T13:55:54.477Z,100651.19
2022-11-20T13:58:49.866Z,100655.19
2022-11-20T14:01:20.958Z,100635.22
2022-11-20T14:04:05.631Z,100641.72
2022-11-20T14:06:45.034Z,100629.03
2022-11-20T14:09:13.832Z,100625.91
2022-11-20T14:11:48.462Z,100624.06
2022-11-20T14:14:18.213Z,100623.69
2022-11-20T14:16:45.292Z,100615.38
2022-11-20T14:19:26.076Z,100621.22
2022-11-20T14:21:54.788Z,100600.41
2022-11-20T14:24:25.869Z,100609.31
2022-11-20T14:26:53.592Z,100605.06
2022-11-20T14:29:24.518Z,100599.13
2022-11-20T14:31:55.286Z,100596.34
2022-11-20T14:34:27.515Z,100595.94
2022-11-20T14:36:58.406Z,100598.41
2022-11-20T14:39:34.102Z,100594.72
2022-11-20T14:42:01.119Z,100581.09
2022-11-20T14:44:34.803Z,100573.97
2022-11-20T14:47:04.450Z,100572.28
2022-11-20T14:49:32.817Z,100569.81
2022-11-20T14:52:11.393Z,100571.69
2022-11-20T14:54:51.989Z,100566.97
2022-11-20T14:57:26.090Z,100551.94
2022-11-20T15:00:04.332Z,100541.19
2022-11-20T15:02:31.534Z,100547.41
2022-11-20T15:05:00.323Z,100535.66
2022-11-20T15:07:29.294Z,100533.09
2022-11-20T15:10:13.976Z,100520.88
2022-11-20T15:12:52.720Z,100509.28
2022-11-20T15:15:46.146Z,100493.56
2022-11-20T15:18:18.784Z,100494.56
2022-11-20T15:20:45.605Z,100476.91
2022-11-20T15:23:13.909Z,100472.31
2022-11-20T15:25:42.067Z,100466.56
2022-11-20T15:28:18.586Z,100462.59
2022-11-20T15:30:46.989Z,100458.41
2022-11-20T15:33:14.079Z,100461.53
2022-11-20T15:35:40.666Z,100452.59
2022-11-20T15:38:07.180Z,100452.66
2022-11-20T15:40:33.690Z,100446.66
2022-11-20T15:43:12.644Z,100432.75
2022-11-20T15:45:49.138Z,100440.44
2022-11-20T15:48:42.001Z,100433.34
2022-11-20T15:51:11.188Z,100415.53
2022-11-20T15:53:41.525Z,100418.84
2022-11-20T15:56:15.097Z,100414.69
2022-11-20T15:58:42.254Z,100404.31
2022-11-20T16:01:17.936Z,100401.84
2022-11-20T16:03:44.490Z,100397.66
2022-11-20T16:06:10.978Z,100386.88
2022-11-20T16:08:37.610Z,100386.47
2022-11-20T16:11:04.704Z,100384.81
2022-11-20T16:13:51.365Z,100365.72
2022-11-20T16:16:29.579Z,100368.63
2022-11-20T16:18:56.045Z,100364.47
2022-11-20T16:21:28.623Z,100367.38
2022-11-20T16:23:55.098Z,100364.69
2022-11-20T16:26:21.681Z,100362.81
2022-11-20T16:28:48.135Z,100358.06
2022-11-20T16:31:17.450Z,100357.41
2022-11-20T16:33:44.284Z,100351.41
2022-11-20T16:36:12.565Z,100351.59
2022-11-20T16:38:39.131Z,100336.84
2022-11-20T16:41:06.739Z,100338.91
2022-11-20T16:43:33.373Z,100327.06
2022-11-20T16:46:04.934Z,100328.34
2022-11-20T16:48:31.421Z,100327.06
2022-11-20T16:50:57.923Z,100328.31
2022-11-20T16:53:24.464Z,100317.06
2022-11-20T16:55:50.927Z,100307.31
2022-11-20T16:58:17.546Z,100292.16
2022-11-20T17:00:50.010Z,100295.47
2022-11-20T17:03:17.944Z,100278.66
2022-11-20T17:05:44.434Z,100271.75
2022-11-20T17:08:10.934Z,100271.13
2022-11-20T17:10:37.435Z,100263.66
2022-11-20T17:13:03.940Z,100244.72
2022-11-20T17:15:31.314Z,100242.63
2022-11-20T17:17:57.801Z,100229.13
2022-11-20T17:20:24.336Z,100218.50
2022-11-20T17:22:50.854Z,100210.41
2022-11-20T17:25:17.325Z,100205.19
2022-11-20T17:27:43.882Z,100212.38
2022-11-20T17:30:10.553Z,100206.59
2022-11-20T17:32:37.126Z,100205.69
2022-11-20T17:35:03.717Z,100203.31
2022-11-20T17:37:30.187Z,100206.88
2022-11-20T17:39:56.959Z,100206.66
2022-11-20T17:42:29.818Z,100206.28
2022-11-20T17:44:58.703Z,100207.66
2022-11-20T17:47:25.895Z,100198.31
2022-11-20T17:49:53.512Z,100208.06
2022-11-20T17:52:20.297Z,100220.59
2022-11-20T17:54:46.804Z,100216.13
2022-11-20T17:57:31.939Z,100228.81
2022-11-20T17:59:58.399Z,100218.19
2022-11-20T18:02:24.973Z,100231.22
2022-11-20T18:04:51.545Z,100228.78
2022-11-20T18:07:18.027Z,100228.56
2022-11-20T18:09:44.499Z,100239.63
2022-11-20T18:12:11.062Z,100246.56
2022-11-20T18:14:37.558Z,100251.78
2022-11-20T18:17:13.620Z,100259.56
2022-11-20T18:20:01.134Z,100275.47
2022-11-20T18:22:31.757Z,100257.63
2022-11-20T18:24:58.307Z,100265.53
2022-11-20T18:27:24.926Z,100267.22
2022-11-20T18:29:52.188Z,100270.13
2022-11-20T18:32:20.641Z,100280.31
2022-11-20T18:34:47.242Z,100280.91
2022-11-20T18:37:15.304Z,100286.03
2022-11-20T18:39:42.190Z,100283.50
2022-11-20T18:42:31.994Z,100287.78
2022-11-20T18:45:00.095Z,100280.59
2022-11-20T18:47:32.005Z,100293.19
2022-11-20T18:50:00.874Z,100293.41
2022-11-20T18:52:38.313Z,100317.00
2022-11-20T18:55:05.673Z,100319.91
2022-11-20T18:57:32.756Z,100308.31
2022-11-20T19:00:03.595Z,100308.56
2022-11-20T19:02:37.943Z,100303.19
2022-11-20T19:05:08.186Z,100317.53
2022-11-20T19:07:34.777Z,100313.47
2022-11-20T19:10:03.895Z,100316.63
2022-11-20T19:12:31.107Z,100320.22
2022-11-20T19:14:57.844Z,100323.31
2022-11-20T19:17:24.489Z,100325.34
2022-11-20T19:19:51.061Z,100326.19
2022-11-20T19:22:17.586Z,100328.34
2022-11-20T19:24:45.848Z,100342.50
2022-11-20T19:27:12.425Z,100345.44
2022-11-20T19:29:38.982Z,100345.91
2022-11-20T19:32:05.658Z,100353.47
2022-11-20T19:34:32.182Z,100349.94
2022-11-20T19:37:00.651Z,100352.09
2022-11-20T19:39:27.338Z,100360.47
2022-11-20T19:41:54.043Z,100346.06
2022-11-20T19:44:20.567Z,100356.28
2022-11-20T19:46:47.142Z,100347.41
2022-11-20T19:49:14.428Z,100364.03
2022-11-20T19:51:46.431Z,100365.09
2022-11-20T19:54:13.117Z,100370.69
2022-11-20T19:56:39.646Z,100360.34
2022-11-20T19:59:06.227Z,100365.38
2022-11-20T20:01:32.853Z,100357.72
2022-11-20T20:04:05.283Z,100369.88
2022-11-20T20:06:34.873Z,100371.94
2022-11-20T20:09:05.344Z,100378.38
2022-11-20T20:11:34.041Z,100382.56
2022-11-20T20:14:02.465Z,100387.59
2022-11-20T20:16:29.149Z,100376.78
2022-11-20T20:19:01.386Z,100384.09
2022-11-20T20:21:30.320Z,100385.34
2022-11-20T20:23:57.967Z,100385.56
2022-11-20T20:26:26.071Z,100393.69
2022-11-20T20:28:52.588Z,100391.84
2022-11-20T20:31:22.223Z,100392.69
2022-11-20T20:33:48.758Z,100388.94
2022-11-20T20:36:17.801Z,100403.50
2022-11-20T20:38:46.229Z,100403.50
2022-11-20T20:41:13.799Z,100404.56
2022-11-20T20:43:59.468Z,100406.41
2022-11-20T20:46:25.962Z,100404.78
2022-11-20T20:48:54.677Z,100403.13
2022-11-20T20:51:22.775Z,100407.69
2022-11-20T20:53:50.096Z,100407.09
2022-11-20T20:56:17.600Z,100411.88
2022-11-20T20:58:44.388Z,100417.31
2022-11-20T21:01:13.732Z,100428.13
2022-11-20T21:03:40.491Z,100435.22
2022-11-20T21:06:10.424Z,100436.03
2022-11-20T21:08:40.425Z,100417.53
2022-11-20T21:11:08.871Z,100422.72
2022-11-20T21:13:36.829Z,100425.66
2022-11-20T21:16:04.096Z,100407.34
2022-11-20T21:18:31.629Z,100417.75
2022-11-20T21:21:17.558Z,100410.06
2022-11-20T21:23:47.743Z,100431.47
2022-11-20T21:26:16.008Z,100431.28
2022-11-20T21:28:43.166Z,100429.41
2022-11-20T21:31:15.397Z,100429.41
2022-11-20T21:33:43.835Z,100430.66
2022-11-20T21:36:12.749Z,100424.00
2022-11-20T21:38:39.522Z,100439.41
2022-11-20T21:41:07.940Z,100444.81
2022-11-20T21:43:35.006Z,100439.41
2022-11-20T21:46:09.770Z,100448.34
2022-11-20T21:48:37.889Z,100450.03
2022-11-20T21:51:06.894Z,100444.38
2022-11-20T21:53:33.723Z,100438.97
2022-11-20T21:56:00.783Z,100432.72
2022-11-20T21:58:27.662Z,100446.47
2022-11-20T22:00:54.224Z,100439.19
2022-11-20T22:03:20.825Z,100426.50
2022-11-20T22:05:55.593Z,100439.41
2022-11-20T22:08:25.452Z,100441.91
2022-11-20T22:10:59.858Z,100458.34
2022-11-20T22:13:45.447Z,100458.56
2022-11-20T22:16:12.817Z,100456.06
2022-11-20T22:18:47.139Z,100460.22
2022-11-20T22:21:15.181Z,100464.81
2022-11-20T22:23:41.754Z,100460.41
2022-11-20T22:26:11.038Z,100469.63
2022-11-20T22:28:38.246Z,100464.84
2022-11-20T22:31:07.571Z,100471.25
2022-11-20T22:33:35.251Z,100479.38
2022-11-20T22:36:03.062Z,100473.97
2022-11-20T22:38:29.911Z,100469.19
2022-11-20T22:41:07.359Z,100480.84
2022-11-20T22:43:34.238Z,100470.22
2022-11-20T22:46:09.670Z,100475.63
2022-11-20T22:48:37.583Z,100470.41
2022-11-20T22:51:09.860Z,100473.75
2022-11-20T22:53:36.803Z,100474.16
2022-11-20T22:56:06.666Z,100478.34
2022-11-20T22:58:34.561Z,100495.81
2022-11-20T23:01:18.687Z,100485.63
2022-11-20T23:03:48.070Z,100495.63
2022-11-20T23:06:16.507Z,100502.06
2022-11-20T23:08:43.289Z,100495.81
2022-11-20T23:11:12.511Z,100505.59
2022-11-20T23:13:39.393Z,100514.34
2022-11-20T23:16:12.266Z,100512.25
2022-11-20T23:18:39.202Z,100515.56
2022-11-20T23:21:07.361Z,100507.44
2022-11-20T23:23:34.042Z,100503.69
2022-11-20T23:26:06.239Z,100511.38
2022-11-20T23:28:33.211Z,100502.22
2022-11-20T23:31:00.779Z,100495.97
2022-11-20T23:33:27.551Z,100500.13
2022-11-20T23:35:54.367Z,100498.22
2022-11-20T23:38:21.112Z,100498.19
2022-11-20T23:40:51.404Z,100499.19
2022-11-20T23:43:19.662Z,100481.19
2022-11-20T23:45:48.742Z,100482.66
2022-11-20T23:48:15.842Z,100481.56
2022-11-20T23:50:43.548Z,100490.28
2022-11-20T23:53:11.113Z,100499.47
2022-11-20T23:55:37.933Z,100502.16
2022-11-20T23:58:05.054Z,100514.44
